Portada
METAR-TAF:

METAR-TAF

Aeroports :

Kajaani, Finlàndia

latitud: 64-17N, longitud: 027-41E, altitud: 143 m

Observació

L'informe es va fer fa 24 minuts, a les 22:50 UTC
Vent 4 kt del Est/Nord-Est
Temperatura 13°C
Humitat 94%
Pressió 1013 hPa
Visibilitat 10 km o més
sense núvols per sota de 1500 mi sense presència de cumulonimbus.

METAR: EFKI 192250Z AUTO 06004KT CAVOK 13/12 Q1013

Hora: 02:14 (23:14 UTC)

Pronòstic

L'informe es va fer fa 2 hores i 51 minuts, a les 20:23 UTC
Pronòstic vàlid del 19 a les 21 UTC al 19 a les 23 UTC
Vent 4 kt del Nord-Est
Visibilitat 10 km o més
sense núvols per sota de 1500 mi sense presència de cumulonimbus.

TAF: EFKI 192023Z 1921/1923 04004KT CAVOK

Observacions i pronòstics meteorològics de més de 4000 aeroports (METAR i TAF).

Les estacions disponibles són els punts grocs i vermells al mapa.

Posi el ratolí al punt desitjat per veure el nom de l'estació.

Feu clic per veure les observacions i els pronòstics meteorològics.

Per canviar el mapa: feu clic els botons verds amb una creu de color negre per apropar; al botó verd amb un guió per allunyar la imatge; o en les fletxes verdes per a mapes adjacents.


METAR-TAF: